Map Display - EGPC to EGPD
(last flight recorded 14-10-2019, 19:47 - Adrian Smith)

Aircraft Weights    Units : Maximums
Passengers :   71  
Cargo : kg 950 kg
Suggested Fuel Load : kg 9,955 kg
 
     
 
Dry Operating : 18,600 kg    
Total Payload : 0 kg 5,894 kg
 
Take Off : 20,200 kg 32,886 kg
 
Expected Landing : 19,626 kg 26,535 kg

Stuart Sutton-Young,  VISC 800,  G-AOHS,  .

Route Distance Previous
Flights
Average
Duration
Average
Fuel Flow
Average
Fuel Use
EGPC - Wick
EGPD - Dyce, Aberdeen
81 nm 12 00:36 1,026 kg/h 574 kg

Current weather :-
 
2019/10/15 00:21
TAF
AMD TAF
AMD EGPD 150019Z 1500/1524 VRB05KT 9999 SCT020
TEMPO 1500/1503 6000 PROB30
TEMPO 1500/1503 1200 BR
TEMPO 1503/1506 6000 BKN012 PROB30
TEMPO 1503/1506 BKN008
BECMG 1506/1509 BKN012
TEMPO 1506/1518 6000 -RADZ BKN008 PROB40
TEMPO 1509/1516 4000 RADZ BKN004
BECMG 1521/1524 19010KT SCT020 PROB40
TEMPO 1521/1524 4000 BR

Back to Virtual Airline